Time;durP1;ratioP1;P1;durP2;ratioP2;P2;SDS_P1;SDS_P2;PMS_P1;PMS_P2;Temp;Humidity;BMP_temperature;BMP_pressure;BME280_temperature;BME280_humidity;BME280_pressure;Samples;Min_cycle;Max_cycle;Signal;HPM_P1;HPM_P2
2021/01/22 00:00:18;;;;;;;;;;;;;;;;;;5055271;28;1955;-74
2021/01/22 00:02:44;;;;;;;;;;;;;;;;;;5054302;28;1612;-72
2021/01/22 00:05:09;;;;;;;;;;;;;;;;;;5055422;28;1380;-70
2021/01/22 00:07:34;;;;;;;;;;;;;;;;;;5053784;28;1440;-73
2021/01/22 00:10:00;;;;;;;;;;;;;;;;;;5055093;28;967;-72
2021/01/22 00:12:25;;;;;;;;;;;;;;;;;;5055487;28;813;-71
2021/01/22 00:14:50;;;;;;;;;;;;;;;;;;5055203;28;1317;-73
2021/01/22 00:17:16;;;;;;;;;;;;;;;;;;5055281;28;975;-73
2021/01/22 00:19:41;;;;;;;;;;;;;;;;;;5053561;28;1902;-74
2021/01/22 00:22:07;;;;;;;;;;;;;;;;;;5055189;28;868;-73
2021/01/22 00:24:32;;;;;;;;;;;;;;;;;;5053545;28;1416;-70
2021/01/22 00:26:57;;;;;;;;;;;;;;;;;;5054892;28;988;-71
2021/01/22 00:29:22;;;;;;;;;;;;;;;;;;5053605;28;926;-73
2021/01/22 00:31:48;;;;;;;;;;;;;;;;;;5053802;28;1221;-72
2021/01/22 00:34:13;;;;;;;;;;;;;;;;;;5054959;28;883;-73
2021/01/22 00:36:38;;;;;;;;;;;;;;;;;;5054845;28;1290;-70
2021/01/22 00:39:03;;;;;;;;;;;;;;;;;;5054644;28;1961;-70
2021/01/22 00:41:29;;;;;;;;;;;;;;;;;;5054362;28;940;-70
2021/01/22 00:43:54;;;;;;;;;;;;;;;;;;5053796;28;1114;-71
2021/01/22 00:46:19;;;;;;;;;;;;;;;;;;5054612;28;1404;-71
2021/01/22 00:48:44;;;;;;;;;;;;;;;;;;5053432;28;2140;-72
2021/01/22 00:51:10;;;;;;;;;;;;;;;;;;5054462;28;869;-73
2021/01/22 00:53:35;;;;;;;;;;;;;;;;;;5054645;28;900;-71
2021/01/22 00:56:00;;;;;;;;;;;;;;;;;;5054445;28;1314;-74
2021/01/22 00:58:25;;;;;;;;;;;;;;;;;;5053482;28;1902;-71
2021/01/22 01:00:51;;;;;;;;;;;;;;;;;;5053127;28;960;-73
2021/01/22 01:03:16;;;;;;;;;;;;;;;;;;5053233;28;1202;-71
2021/01/22 01:05:41;;;;;;;;;;;;;;;;;;5054492;28;1424;-70
2021/01/22 01:08:06;;;;;;;;;;;;;;;;;;5054329;28;916;-75
2021/01/22 01:10:31;;;;;;;;;;;;;;;;;;5054083;28;931;-70
2021/01/22 01:12:57;;;;;;;;;;;;;;;;;;5054313;28;857;-72
2021/01/22 01:15:22;;;;;;;;;;;;;;;;;;5054096;28;1392;-75
2021/01/22 01:17:47;;;;;;;;;;;;;;;;;;5052739;28;1195;-71
2021/01/22 01:20:13;;;;;;;;;;;;;;;;;;5051982;28;1902;-70
2021/01/22 01:22:38;;;;;;;;;;;;;;;;;;5054305;28;893;-71
2021/01/22 01:25:04;;;;;;;;;;;;;;;;;;5053972;28;1413;-70
2021/01/22 01:27:29;;;;;;;;;;;;;;;;;;5052643;28;1617;-74
2021/01/22 01:29:54;;;;;;;;;;;;;;;;;;5052708;28;904;-71
2021/01/22 01:32:20;;;;;;;;;;;;;;;;;;5054120;28;925;-71
2021/01/22 01:34:45;;;;;;;;;;;;;;;;;;5052932;28;1286;-71
2021/01/22 01:37:10;;;;;;;;;;;;;;;;;;5052628;28;1923;-73
2021/01/22 01:39:35;;;;;;;;;;;;;;;;;;5053481;28;1897;-72
2021/01/22 01:42:01;;;;;;;;;;;;;;;;;;5052994;28;1226;-74
2021/01/22 01:44:26;;;;;;;;;;;;;;;;;;5053866;28;928;-73
2021/01/22 01:46:51;;;;;;;;;;;;;;;;;;5053745;28;1409;-71
2021/01/22 01:49:16;;;;;;;;;;;;;;;;;;5053797;28;786;-74
2021/01/22 01:51:43;;;;;;;;;;;;;;;;;;5053622;28;932;-74
2021/01/22 01:54:08;;;;;;;;;;;;;;;;;;5052485;28;850;-70
2021/01/22 01:56:34;;;;;;;;;;;;;;;;;;5053686;28;1318;-72
2021/01/22 01:59:00;;;;;;;;;;;;;;;;;;5053675;28;1945;-74
2021/01/22 02:01:26;;;;;;;;;;;;;;;;;;5053554;28;896;-73
2021/01/22 02:03:51;;;;;;;;;;;;;;;;;;5053772;28;937;-71
2021/01/22 02:06:17;;;;;;;;;;;;;;;;;;5052238;28;1611;-74
2021/01/22 02:08:42;;;;;;;;;;;;;;;;;;5053512;28;876;-73
2021/01/22 02:11:08;;;;;;;;;;;;;;;;;;5052232;28;741;-73
2021/01/22 02:13:35;;;;;;;;;;;;;;;;;;5053847;28;820;-72
2021/01/22 02:16:00;;;;;;;;;;;;;;;;;;5053343;28;1306;-71
2021/01/22 02:18:26;;;;;;;;;;;;;;;;;;5053598;28;1926;-74
2021/01/22 02:20:58;;;;;;;;;;;;;;;;;;5053537;28;806;-73
2021/01/22 02:23:24;;;;;;;;;;;;;;;;;;5053611;28;948;-72
2021/01/22 02:25:50;;;;;;;;;;;;;;;;;;5052155;28;1302;-70
2021/01/22 02:28:16;;;;;;;;;;;;;;;;;;5052250;28;1305;-72
2021/01/22 02:30:42;;;;;;;;;;;;;;;;;;5053083;28;833;-71
2021/01/22 02:33:08;;;;;;;;;;;;;;;;;;5056004;28;814;-69
2021/01/22 02:35:34;;;;;;;;;;;;;;;;;;5055834;28;1326;-70
2021/01/22 02:37:59;;;;;;;;;;;;;;;;;;5055756;28;1547;-70
2021/01/22 02:40:25;;;;;;;;;;;;;;;;;;5056726;28;1894;-72
2021/01/22 02:42:50;;;;;;;;;;;;;;;;;;5057317;28;881;-71
2021/01/22 02:45:16;;;;;;;;;;;;;;;;;;5055842;28;1297;-71
2021/01/22 02:47:45;;;;;;;;;;;;;;;;;;5057077;28;908;-71
2021/01/22 02:50:12;;;;;;;;;;;;;;;;;;5055549;28;1169;-69
2021/01/22 02:52:37;;;;;;;;;;;;;;;;;;5056841;28;903;-69
2021/01/22 02:55:02;;;;;;;;;;;;;;;;;;5055500;28;1385;-71
2021/01/22 02:57:41;;;;;;;;;;;;;;;;;;5056867;28;896;-69
2021/01/22 03:00:18;;;;;;;;;;;;;;;;;;5055315;28;1906;-70
2021/01/22 03:03:02;;;;;;;;;;;;;;;;;;5058254;28;1578;-72
2021/01/22 03:05:30;;;;;;;;;;;;;;;;;;5064481;28;1764;-70
2021/01/22 03:07:57;;;;;;;;;;;;;;;;;;5070315;28;1506;-70
2021/01/22 03:10:24;;;;;;;;;;;;;;;;;;5064290;28;1490;-71
2021/01/22 03:12:51;;;;;;;;;;;;;;;;;;5066760;28;1789;-73
2021/01/22 03:15:17;;;;;;;;;;;;;;;;;;5061817;28;1551;-71
2021/01/22 03:17:42;;;;;;;;;;;;;;;;;;5056276;28;974;-69
2021/01/22 03:20:08;;;;;;;;;;;;;;;;;;5056220;28;1905;-73
2021/01/22 03:22:34;;;;;;;;;;;;;;;;;;5055366;28;1682;-73
2021/01/22 03:24:59;;;;;;;;;;;;;;;;;;5056112;28;1286;-72
2021/01/22 03:27:24;;;;;;;;;;;;;;;;;;5056808;28;790;-69
2021/01/22 03:29:49;;;;;;;;;;;;;;;;;;5056675;28;1416;-71
2021/01/22 03:32:14;;;;;;;;;;;;;;;;;;5056805;28;971;-69
2021/01/22 03:34:40;;;;;;;;;;;;;;;;;;5056684;28;1274;-72
2021/01/22 03:37:05;;;;;;;;;;;;;;;;;;5055747;28;1174;-73
2021/01/22 03:39:34;;;;;;;;;;;;;;;;;;5055321;28;1902;-74
2021/01/22 03:41:59;;;;;;;;;;;;;;;;;;5056375;28;1195;-72
2021/01/22 03:44:24;;;;;;;;;;;;;;;;;;5054768;28;1015;-71
2021/01/22 03:46:49;;;;;;;;;;;;;;;;;;5056343;28;1286;-72
2021/01/22 03:49:15;;;;;;;;;;;;;;;;;;5056311;28;882;-72
2021/01/22 03:51:40;;;;;;;;;;;;;;;;;;5054913;28;1855;-72
2021/01/22 03:54:05;;;;;;;;;;;;;;;;;;5055059;28;1399;-73
2021/01/22 03:56:34;;;;;;;;;;;;;;;;;;5056229;28;1389;-71
2021/01/22 03:58:59;;;;;;;;;;;;;;;;;;5054889;28;1945;-70
2021/01/22 04:01:25;;;;;;;;;;;;;;;;;;5055945;28;960;-71
2021/01/22 04:03:50;;;;;;;;;;;;;;;;;;5054893;28;1554;-69
2021/01/22 04:06:16;;;;;;;;;;;;;;;;;;5055993;28;1306;-72
2021/01/22 04:08:41;;;;;;;;;;;;;;;;;;5055995;28;789;-72
2021/01/22 04:11:07;;;;;;;;;;;;;;;;;;5054618;28;1305;-70
2021/01/22 04:13:32;;;;;;;;;;;;;;;;;;5056030;28;844;-71
2021/01/22 04:15:57;;;;;;;;;;;;;;;;;;5055716;28;1417;-70
2021/01/22 04:18:23;;;;;;;;;;;;;;;;;;5055849;28;810;-73
2021/01/22 04:20:48;;;;;;;;;;;;;;;;;;5055692;28;1905;-72
2021/01/22 04:23:14;;;;;;;;;;;;;;;;;;5054500;28;892;-70
2021/01/22 04:25:39;;;;;;;;;;;;;;;;;;5055791;28;1361;-70
2021/01/22 04:28:04;;;;;;;;;;;;;;;;;;5054555;28;861;-73
2021/01/22 04:30:29;;;;;;;;;;;;;;;;;;5054238;28;881;-73
2021/01/22 04:32:54;;;;;;;;;;;;;;;;;;5055671;28;873;-72
2021/01/22 04:35:20;;;;;;;;;;;;;;;;;;5055278;28;1318;-70
2021/01/22 04:37:45;;;;;;;;;;;;;;;;;;5055470;28;871;-70
2021/01/22 04:40:11;;;;;;;;;;;;;;;;;;5055154;28;1881;-73
2021/01/22 04:42:39;;;;;;;;;;;;;;;;;;5054174;28;1324;-70
2021/01/22 04:45:06;;;;;;;;;;;;;;;;;;5053777;28;1381;-72
2021/01/22 04:47:32;;;;;;;;;;;;;;;;;;5055351;28;876;-70
2021/01/22 04:50:00;;;;;;;;;;;;;;;;;;5053883;28;2736;-70
2021/01/22 04:52:25;;;;;;;;;;;;;;;;;;5055157;28;920;-71
2021/01/22 04:54:52;;;;;;;;;;;;;;;;;;5054737;28;1385;-71
2021/01/22 04:57:18;;;;;;;;;;;;;;;;;;5054397;28;1150;-69
2021/01/22 04:59:46;;;;;;;;;;;;;;;;;;5053474;28;1955;-72
2021/01/22 05:02:12;;;;;;;;;;;;;;;;;;5055335;28;857;-70
2021/01/22 05:04:39;;;;;;;;;;;;;;;;;;5054925;28;1321;-72
2021/01/22 05:07:04;;;;;;;;;;;;;;;;;;5053463;28;1206;-69
2021/01/22 05:09:29;;;;;;;;;;;;;;;;;;5054919;28;884;-73
2021/01/22 05:11:55;;;;;;;;;;;;;;;;;;5054834;28;881;-69
2021/01/22 05:14:20;;;;;;;;;;;;;;;;;;5053543;28;936;-70
2021/01/22 05:17:18;;;;;;;;;;;;;;;;;;5053763;28;1369;-70
2021/01/22 05:19:44;;;;;;;;;;;;;;;;;;5064346;28;1959;-69
2021/01/22 05:22:13;;;;;;;;;;;;;;;;;;5054757;28;1043;-70
2021/01/22 05:24:38;;;;;;;;;;;;;;;;;;5054739;28;1416;-72
2021/01/22 05:27:06;;;;;;;;;;;;;;;;;;5054550;28;828;-71
2021/01/22 05:29:32;;;;;;;;;;;;;;;;;;5054708;28;797;-73
2021/01/22 05:31:58;;;;;;;;;;;;;;;;;;5054370;28;947;-70
2021/01/22 05:34:24;;;;;;;;;;;;;;;;;;5053388;28;1566;-71
2021/01/22 05:36:50;;;;;;;;;;;;;;;;;;5054259;28;1346;-70
2021/01/22 05:39:20;;;;;;;;;;;;;;;;;;5053312;28;1898;-70
2021/01/22 05:41:49;;;;;;;;;;;;;;;;;;5054395;28;1038;-69
2021/01/22 05:44:19;;;;;;;;;;;;;;;;;;5053203;28;1219;-69
2021/01/22 05:46:58;;;;;;;;;;;;;;;;;;5054108;28;1365;-70
2021/01/22 05:49:24;;;;;;;;;;;;;;;;;;5054427;28;921;-69
2021/01/22 05:51:51;;;;;;;;;;;;;;;;;;5054185;28;897;-70
2021/01/22 05:54:35;;;;;;;;;;;;;;;;;;5053231;28;842;-71
2021/01/22 05:57:01;;;;;;;;;;;;;;;;;;5052966;28;1223;-71
2021/01/22 05:59:26;;;;;;;;;;;;;;;;;;5052871;28;1902;-72
2021/01/22 06:01:51;;;;;;;;;;;;;;;;;;5054140;28;826;-69
2021/01/22 06:04:16;;;;;;;;;;;;;;;;;;5054180;28;861;-72
2021/01/22 06:06:42;;;;;;;;;;;;;;;;;;5055776;28;1298;-70
2021/01/22 06:09:07;;;;;;;;;;;;;;;;;;5058257;28;987;-73
2021/01/22 06:11:33;;;;;;;;;;;;;;;;;;5056826;28;1218;-72
2021/01/22 06:13:59;;;;;;;;;;;;;;;;;;5058261;28;794;-73
2021/01/22 06:16:25;;;;;;;;;;;;;;;;;;5058009;28;1325;-70
2021/01/22 06:18:58;;;;;;;;;;;;;;;;;;5058060;28;1902;-70
2021/01/22 06:21:25;;;;;;;;;;;;;;;;;;5057902;28;881;-69
2021/01/22 06:23:53;;;;;;;;;;;;;;;;;;5056714;28;1500;-70
2021/01/22 06:26:19;;;;;;;;;;;;;;;;;;5058171;28;1405;-73
2021/01/22 06:28:45;;;;;;;;;;;;;;;;;;5056995;28;1110;-72
2021/01/22 06:31:11;;;;;;;;;;;;;;;;;;5057655;28;790;-72
2021/01/22 06:33:37;;;;;;;;;;;;;;;;;;5057732;28;892;-70
2021/01/22 06:36:04;;;;;;;;;;;;;;;;;;5056513;28;1424;-73
2021/01/22 06:38:30;;;;;;;;;;;;;;;;;;5057749;28;868;-73
2021/01/22 06:40:56;;;;;;;;;;;;;;;;;;5056414;28;1890;-71
2021/01/22 06:43:21;;;;;;;;;;;;;;;;;;5056482;28;1194;-73
2021/01/22 06:45:46;;;;;;;;;;;;;;;;;;5057430;28;1352;-73
2021/01/22 06:48:12;;;;;;;;;;;;;;;;;;5056482;28;1131;-69
2021/01/22 06:50:46;;;;;;;;;;;;;;;;;;5057795;28;943;-67
2021/01/22 06:53:14;;;;;;;;;;;;;;;;;;5058510;28;995;-68
2021/01/22 06:55:59;;;;;;;;;;;;;;;;;;5057846;28;1369;-66
2021/01/22 06:58:25;;;;;;;;;;;;;;;;;;5060426;28;1334;-66
2021/01/22 07:00:52;;;;;;;;;;;;;;;;;;5055934;28;1886;-67
2021/01/22 07:03:36;;;;;;;;;;;;;;;;;;5057128;28;830;-68
2021/01/22 07:06:05;;;;;;;;;;;;;;;;;;5055888;28;1389;-68
2021/01/22 07:08:48;;;;;;;;;;;;;;;;;;5057254;28;948;-69
2021/01/22 07:11:26;;;;;;;;;;;;;;;;;;5056811;28;1713;-67
2021/01/22 07:13:52;;;;;;;;;;;;;;;;;;5058237;28;992;-67
2021/01/22 07:16:17;;;;;;;;;;;;;;;;;;5059286;28;1345;-67
2021/01/22 07:18:47;;;;;;;;;;;;;;;;;;5058652;28;1906;-69
2021/01/22 07:21:25;;;;;;;;;;;;;;;;;;5057341;28;1546;-67
2021/01/22 07:23:51;;;;;;;;;;;;;;;;;;5056964;28;1439;-67
2021/01/22 07:26:16;;;;;;;;;;;;;;;;;;5055659;28;1440;-69
2021/01/22 07:28:52;;;;;;;;;;;;;;;;;;5055260;28;1610;-68
2021/01/22 07:31:36;;;;;;;;;;;;;;;;;;5056569;28;825;-67
2021/01/22 07:34:01;;;;;;;;;;;;;;;;;;5056878;28;995;-70
2021/01/22 07:36:28;;;;;;;;;;;;;;;;;;5056585;28;1314;-67
2021/01/22 07:38:54;;;;;;;;;;;;;;;;;;5055532;28;1957;-67
2021/01/22 07:41:20;;;;;;;;;;;;;;;;;;5055441;28;869;-70
2021/01/22 07:43:45;;;;;;;;;;;;;;;;;;5056744;28;869;-68
2021/01/22 07:46:11;;;;;;;;;;;;;;;;;;5056351;28;1302;-68
2021/01/22 07:48:37;;;;;;;;;;;;;;;;;;5055297;28;1227;-68
2021/01/22 07:51:21;;;;;;;;;;;;;;;;;;5055909;28;1333;-69
2021/01/22 07:53:55;;;;;;;;;;;;;;;;;;5056424;28;1085;-68
2021/01/22 07:56:20;;;;;;;;;;;;;;;;;;5056174;28;1334;-68
2021/01/22 07:58:45;;;;;;;;;;;;;;;;;;5056200;28;1894;-70
2021/01/22 08:01:20;;;;;;;;;;;;;;;;;;5055934;28;872;-70
2021/01/22 08:03:46;;;;;;;;;;;;;;;;;;5056155;28;829;-68
2021/01/22 08:06:11;;;;;;;;;;;;;;;;;;5055770;28;1306;-69
2021/01/22 08:08:36;;;;;;;;;;;;;;;;;;5054948;28;1015;-69
2021/01/22 08:11:16;;;;;;;;;;;;;;;;;;5055819;28;901;-65
2021/01/22 08:13:42;;;;;;;;;;;;;;;;;;5054975;28;957;-66
2021/01/22 08:16:07;;;;;;;;;;;;;;;;;;5055768;28;1373;-66
2021/01/22 08:18:32;;;;;;;;;;;;;;;;;;5056009;28;877;-68
2021/01/22 08:20:58;;;;;;;;;;;;;;;;;;5055454;28;1898;-66
2021/01/22 08:23:23;;;;;;;;;;;;;;;;;;5037964;28;1561;-69
2021/01/22 08:25:48;;;;;;;;;;;;;;;;;;5054440;28;1361;-68
2021/01/22 08:28:14;;;;;;;;;;;;;;;;;;5055607;28;908;-68
2021/01/22 08:30:40;;;;;;;;;;;;;;;;;;5055253;28;940;-70
2021/01/22 08:33:05;;;;;;;;;;;;;;;;;;5055550;28;825;-70
2021/01/22 08:35:31;;;;;;;;;;;;;;;;;;5054137;28;1464;-68
2021/01/22 08:37:56;;;;;;;;;;;;;;;;;;5055474;28;809;-68
2021/01/22 08:40:34;;;;;;;;;;;;;;;;;;5055131;28;1891;-69
2021/01/22 08:43:09;;;;;;;;;;;;;;;;;;5055248;28;1094;-69
2021/01/22 08:45:34;;;;;;;;;;;;;;;;;;5053906;28;1361;-70
2021/01/22 08:48:00;;;;;;;;;;;;;;;;;;5055350;28;931;-69
2021/01/22 08:50:25;;;;;;;;;;;;;;;;;;5054095;28;909;-68
2021/01/22 08:53:07;;;;;;;;;;;;;;;;;;5055079;28;794;-68
2021/01/22 08:55:36;;;;;;;;;;;;;;;;;;5055073;28;1380;-68
2021/01/22 08:58:05;;;;;;;;;;;;;;;;;;5053777;28;1347;-68
2021/01/22 09:00:31;;;;;;;;;;;;;;;;;;5055115;28;1894;-69
2021/01/22 09:02:57;;;;;;;;;;;;;;;;;;5055112;28;1130;-70
2021/01/22 09:05:22;;;;;;;;;;;;;;;;;;5053541;28;1357;-68
2021/01/22 09:08:03;;;;;;;;;;;;;;;;;;5053334;28;1271;-69
2021/01/22 09:10:29;;;;;;;;;;;;;;;;;;5054782;28;901;-70
2021/01/22 09:13:07;;;;;;;;;;;;;;;;;;5054767;28;821;-68
2021/01/22 09:15:32;;;;;;;;;;;;;;;;;;5053712;28;1349;-70
2021/01/22 09:17:57;;;;;;;;;;;;;;;;;;5054538;28;1239;-70
2021/01/22 09:20:24;;;;;;;;;;;;;;;;;;5054342;28;1893;-70
2021/01/22 09:22:50;;;;;;;;;;;;;;;;;;5054566;28;967;-68
2021/01/22 09:25:18;;;;;;;;;;;;;;;;;;5054590;28;1333;-68
2021/01/22 09:27:44;;;;;;;;;;;;;;;;;;5053393;28;1250;-69
2021/01/22 09:30:13;;;;;;;;;;;;;;;;;;5053143;28;1241;-67
2021/01/22 09:32:38;;;;;;;;;;;;;;;;;;5053088;28;944;-67
2021/01/22 09:35:04;;;;;;;;;;;;;;;;;;5054539;28;1314;-70
2021/01/22 09:37:30;;;;;;;;;;;;;;;;;;5053423;28;924;-68
2021/01/22 09:39:55;;;;;;;;;;;;;;;;;;5054698;28;1906;-69
2021/01/22 09:42:20;;;;;;;;;;;;;;;;;;5054136;28;916;-69
2021/01/22 09:44:45;;;;;;;;;;;;;;;;;;5054670;28;1365;-70
2021/01/22 09:47:11;;;;;;;;;;;;;;;;;;5053058;28;1194;-70
2021/01/22 09:49:36;;;;;;;;;;;;;;;;;;5053000;28;881;-68
2021/01/22 09:52:01;;;;;;;;;;;;;;;;;;5054474;28;885;-69
2021/01/22 09:54:27;;;;;;;;;;;;;;;;;;5054383;28;921;-68
2021/01/22 09:56:52;;;;;;;;;;;;;;;;;;5054338;28;1416;-70
2021/01/22 09:59:17;;;;;;;;;;;;;;;;;;5052779;28;1893;-70
2021/01/22 10:01:42;;;;;;;;;;;;;;;;;;5054119;28;956;-70
2021/01/22 10:04:08;;;;;;;;;;;;;;;;;;5054328;28;825;-70
2021/01/22 10:06:33;;;;;;;;;;;;;;;;;;5054039;28;1381;-69
2021/01/22 10:08:58;;;;;;;;;;;;;;;;;;5052865;28;1381;-69
2021/01/22 10:11:24;;;;;;;;;;;;;;;;;;5036481;28;1386;-68
2021/01/22 10:13:53;;;;;;;;;;;;;;;;;;5053189;28;1552;-69
2021/01/22 10:16:22;;;;;;;;;;;;;;;;;;5052648;28;1298;-68
2021/01/22 10:18:49;;;;;;;;;;;;;;;;;;5054156;28;1961;-69
2021/01/22 10:21:14;;;;;;;;;;;;;;;;;;5053748;28;865;-70
2021/01/22 10:23:39;;;;;;;;;;;;;;;;;;5053352;28;838;-70
2021/01/22 10:26:04;;;;;;;;;;;;;;;;;;5053995;28;1404;-67
2021/01/22 10:28:30;;;;;;;;;;;;;;;;;;5052880;28;1273;-71
2021/01/22 10:30:55;;;;;;;;;;;;;;;;;;5053136;28;885;-70
2021/01/22 10:33:20;;;;;;;;;;;;;;;;;;5052735;28;1258;-68
2021/01/22 10:35:45;;;;;;;;;;;;;;;;;;5054179;28;1362;-70
2021/01/22 10:38:11;;;;;;;;;;;;;;;;;;5053908;28;830;-68
2021/01/22 10:40:37;;;;;;;;;;;;;;;;;;5052508;28;1898;-68
2021/01/22 10:43:02;;;;;;;;;;;;;;;;;;5053015;28;1594;-68
2021/01/22 10:45:27;;;;;;;;;;;;;;;;;;5053861;28;1381;-70
2021/01/22 10:47:52;;;;;;;;;;;;;;;;;;5052929;28;1325;-69
2021/01/22 10:50:18;;;;;;;;;;;;;;;;;;5053702;28;953;-69
2021/01/22 10:52:44;;;;;;;;;;;;;;;;;;5054242;28;845;-70
2021/01/22 10:55:09;;;;;;;;;;;;;;;;;;5057400;28;1310;-69
2021/01/22 10:57:35;;;;;;;;;;;;;;;;;;5057446;28;881;-68
2021/01/22 11:00:00;;;;;;;;;;;;;;;;;;5057147;28;1961;-69
2021/01/22 11:02:25;;;;;;;;;;;;;;;;;;5057394;28;829;-71
2021/01/22 11:04:50;;;;;;;;;;;;;;;;;;5057412;28;1294;-71
2021/01/22 11:07:15;;;;;;;;;;;;;;;;;;5057085;28;890;-70
2021/01/22 11:09:42;;;;;;;;;;;;;;;;;;5055827;28;1183;-71
2021/01/22 11:12:07;;;;;;;;;;;;;;;;;;5057262;28;991;-69
2021/01/22 11:14:32;;;;;;;;;;;;;;;;;;5057008;28;1357;-71
2021/01/22 11:16:58;;;;;;;;;;;;;;;;;;5056927;28;988;-69
2021/01/22 11:19:23;;;;;;;;;;;;;;;;;;5055919;28;1964;-68
2021/01/22 11:21:52;;;;;;;;;;;;;;;;;;5056666;28;869;-68
2021/01/22 11:24:17;;;;;;;;;;;;;;;;;;5056878;28;2022;-68
2021/01/22 11:26:42;;;;;;;;;;;;;;;;;;5055793;28;1398;-67
2021/01/22 11:29:08;;;;;;;;;;;;;;;;;;5056751;28;845;-68
2021/01/22 11:31:33;;;;;;;;;;;;;;;;;;5056441;28;988;-67
2021/01/22 11:33:58;;;;;;;;;;;;;;;;;;5055521;28;1764;-68
2021/01/22 11:36:23;;;;;;;;;;;;;;;;;;5055710;28;1361;-69
2021/01/22 11:38:49;;;;;;;;;;;;;;;;;;5055288;28;1902;-68
2021/01/22 11:41:14;;;;;;;;;;;;;;;;;;5055326;28;1202;-67
2021/01/22 11:43:39;;;;;;;;;;;;;;;;;;5055608;28;1000;-68
2021/01/22 11:46:05;;;;;;;;;;;;;;;;;;5055205;28;1472;-70
2021/01/22 11:48:30;;;;;;;;;;;;;;;;;;5056559;28;1174;-69
2021/01/22 11:50:55;;;;;;;;;;;;;;;;;;5056249;28;1214;-67
2021/01/22 11:53:20;;;;;;;;;;;;;;;;;;5055408;28;921;-68
2021/01/22 11:55:46;;;;;;;;;;;;;;;;;;5056454;28;1396;-69
2021/01/22 11:58:11;;;;;;;;;;;;;;;;;;5056316;28;809;-70
2021/01/22 12:00:38;;;;;;;;;;;;;;;;;;5038058;28;1972;-67
2021/01/22 12:03:03;;;;;;;;;;;;;;;;;;5056269;28;841;-69
2021/01/22 12:05:29;;;;;;;;;;;;;;;;;;5054222;28;1479;-68
2021/01/22 12:07:54;;;;;;;;;;;;;;;;;;5056427;28;822;-67
2021/01/22 12:10:19;;;;;;;;;;;;;;;;;;5055851;28;869;-66
2021/01/22 12:12:44;;;;;;;;;;;;;;;;;;5056165;28;964;-66
2021/01/22 12:15:10;;;;;;;;;;;;;;;;;;5055937;28;1329;-69
2021/01/22 12:17:35;;;;;;;;;;;;;;;;;;5054595;28;992;-67
2021/01/22 12:20:00;;;;;;;;;;;;;;;;;;5054358;28;1961;-68
2021/01/22 12:22:25;;;;;;;;;;;;;;;;;;5054648;28;1290;-66
2021/01/22 12:24:51;;;;;;;;;;;;;;;;;;5054468;28;1639;-67
2021/01/22 12:27:16;;;;;;;;;;;;;;;;;;5055763;28;900;-69
2021/01/22 12:29:41;;;;;;;;;;;;;;;;;;5055276;28;968;-67
2021/01/22 12:32:06;;;;;;;;;;;;;;;;;;5055648;28;901;-67
2021/01/22 12:34:31;;;;;;;;;;;;;;;;;;5055579;28;1408;-67
2021/01/22 12:36:57;;;;;;;;;;;;;;;;;;5055569;28;1020;-69
2021/01/22 12:39:22;;;;;;;;;;;;;;;;;;5053931;28;2499;-69
2021/01/22 12:41:49;;;;;;;;;;;;;;;;;;5055514;28;861;-68
2021/01/22 12:44:14;;;;;;;;;;;;;;;;;;5055536;28;1059;-68
2021/01/22 12:46:39;;;;;;;;;;;;;;;;;;5055239;28;1306;-69
2021/01/22 12:49:05;;;;;;;;;;;;;;;;;;5055507;28;888;-66
2021/01/22 12:51:30;;;;;;;;;;;;;;;;;;5054887;28;888;-66
2021/01/22 12:53:55;;;;;;;;;;;;;;;;;;5055279;28;951;-67
2021/01/22 12:56:20;;;;;;;;;;;;;;;;;;5053803;28;1325;-69
2021/01/22 12:58:46;;;;;;;;;;;;;;;;;;5055289;28;911;-66
2021/01/22 13:01:11;;;;;;;;;;;;;;;;;;5054834;28;1890;-72
2021/01/22 13:03:36;;;;;;;;;;;;;;;;;;5055128;28;1038;-69
2021/01/22 13:06:01;;;;;;;;;;;;;;;;;;5053730;28;1326;-72
2021/01/22 13:08:27;;;;;;;;;;;;;;;;;;5054974;28;875;-67
2021/01/22 13:10:52;;;;;;;;;;;;;;;;;;5055092;28;869;-68
2021/01/22 13:13:17;;;;;;;;;;;;;;;;;;5054854;28;915;-68
2021/01/22 13:15:42;;;;;;;;;;;;;;;;;;5053103;28;1404;-69
2021/01/22 13:18:08;;;;;;;;;;;;;;;;;;5054344;28;1071;-67
2021/01/22 13:20:33;;;;;;;;;;;;;;;;;;5054388;28;1897;-66
2021/01/22 13:22:58;;;;;;;;;;;;;;;;;;5054859;28;893;-67
2021/01/22 13:25:23;;;;;;;;;;;;;;;;;;5054804;28;1338;-70
2021/01/22 13:27:49;;;;;;;;;;;;;;;;;;5054440;28;838;-71
2021/01/22 13:30:14;;;;;;;;;;;;;;;;;;5054634;28;802;-77
2021/01/22 13:32:40;;;;;;;;;;;;;;;;;;5055166;28;1593;-73
2021/01/22 13:35:05;;;;;;;;;;;;;;;;;;5053751;28;1500;-78
2021/01/22 13:37:31;;;;;;;;;;;;;;;;;;5053202;28;1691;-73
2021/01/22 13:39:56;;;;;;;;;;;;;;;;;;5054151;28;1894;-74
2021/01/22 13:42:21;;;;;;;;;;;;;;;;;;5053240;28;1175;-72
2021/01/22 13:44:46;;;;;;;;;;;;;;;;;;5053260;28;1397;-73
2021/01/22 13:47:12;;;;;;;;;;;;;;;;;;5054348;28;830;-77
2021/01/22 13:49:37;;;;;;;;;;;;;;;;;;5054315;28;818;-77
2021/01/22 13:52:03;;;;;;;;;;;;;;;;;;5053123;28;1261;-79
2021/01/22 13:54:28;;;;;;;;;;;;;;;;;;5053363;28;830;-75
2021/01/22 13:56:53;;;;;;;;;;;;;;;;;;5054067;28;1413;-76
2021/01/22 13:59:18;;;;;;;;;;;;;;;;;;5052938;28;1904;-71
2021/01/22 14:01:44;;;;;;;;;;;;;;;;;;5054237;28;859;-77
2021/01/22 14:04:09;;;;;;;;;;;;;;;;;;5054185;28;858;-73
2021/01/22 14:06:36;;;;;;;;;;;;;;;;;;5053925;28;1302;-77
2021/01/22 14:09:01;;;;;;;;;;;;;;;;;;5054287;28;857;-75
2021/01/22 14:11:26;;;;;;;;;;;;;;;;;;5054014;28;877;-72
2021/01/22 14:13:51;;;;;;;;;;;;;;;;;;5054139;28;810;-73
2021/01/22 14:16:17;;;;;;;;;;;;;;;;;;5053692;28;1302;-71
2021/01/22 14:18:42;;;;;;;;;;;;;;;;;;5054073;28;956;-75
2021/01/22 14:21:07;;;;;;;;;;;;;;;;;;5053937;28;1963;-73
2021/01/22 14:23:32;;;;;;;;;;;;;;;;;;5052883;28;861;-71
2021/01/22 14:25:58;;;;;;;;;;;;;;;;;;5053837;28;1290;-75
2021/01/22 14:28:23;;;;;;;;;;;;;;;;;;5056950;28;893;-79
2021/01/22 14:30:48;;;;;;;;;;;;;;;;;;5056477;28;1491;-76
2021/01/22 14:33:13;;;;;;;;;;;;;;;;;;5057889;28;920;-77
2021/01/22 14:35:39;;;;;;;;;;;;;;;;;;5057673;28;2225;-78
2021/01/22 14:38:04;;;;;;;;;;;;;;;;;;5057984;28;825;-74
2021/01/22 14:40:29;;;;;;;;;;;;;;;;;;5057620;28;1898;-75
2021/01/22 14:42:54;;;;;;;;;;;;;;;;;;5064008;28;1598;-75
2021/01/22 14:45:20;;;;;;;;;;;;;;;;;;5077563;28;1302;-75
2021/01/22 14:47:45;;;;;;;;;;;;;;;;;;5077819;28;793;-74
2021/01/22 14:50:10;;;;;;;;;;;;;;;;;;5077511;28;1068;-77
2021/01/22 14:52:36;;;;;;;;;;;;;;;;;;5076113;28;1287;-76
2021/01/22 14:55:02;;;;;;;;;;;;;;;;;;5077438;28;1392;-77
2021/01/22 14:57:28;;;;;;;;;;;;;;;;;;5077475;28;817;-72
2021/01/22 14:59:53;;;;;;;;;;;;;;;;;;5077181;28;1902;-75
2021/01/22 15:02:18;;;;;;;;;;;;;;;;;;5077554;28;859;-75
2021/01/22 15:04:44;;;;;;;;;;;;;;;;;;5077030;28;1281;-74
2021/01/22 15:07:09;;;;;;;;;;;;;;;;;;5075970;28;1206;-74
2021/01/22 15:09:34;;;;;;;;;;;;;;;;;;5076988;28;896;-70
2021/01/22 15:12:00;;;;;;;;;;;;;;;;;;5077114;28;896;-77
2021/01/22 15:14:25;;;;;;;;;;;;;;;;;;5077540;28;860;-75
2021/01/22 15:16:50;;;;;;;;;;;;;;;;;;5075162;28;1464;-77
2021/01/22 15:19:16;;;;;;;;;;;;;;;;;;5075967;28;1905;-76
2021/01/22 15:21:41;;;;;;;;;;;;;;;;;;5076919;28;884;-75
2021/01/22 15:24:06;;;;;;;;;;;;;;;;;;5076272;28;1508;-75
2021/01/22 15:26:32;;;;;;;;;;;;;;;;;;5076814;28;1404;-73
2021/01/22 15:28:57;;;;;;;;;;;;;;;;;;5075694;28;1340;-72
2021/01/22 15:31:22;;;;;;;;;;;;;;;;;;5075250;28;1288;-72
2021/01/22 15:33:48;;;;;;;;;;;;;;;;;;5076782;28;868;-70
2021/01/22 15:36:13;;;;;;;;;;;;;;;;;;5076845;28;1377;-77
2021/01/22 15:38:38;;;;;;;;;;;;;;;;;;5075567;28;952;-72
2021/01/22 15:41:03;;;;;;;;;;;;;;;;;;5075030;28;1955;-70
2021/01/22 15:43:29;;;;;;;;;;;;;;;;;;5076533;28;860;-73
2021/01/22 15:45:54;;;;;;;;;;;;;;;;;;5076806;28;1413;-75
2021/01/22 15:48:19;;;;;;;;;;;;;;;;;;5075276;28;1180;-76
2021/01/22 15:50:44;;;;;;;;;;;;;;;;;;5076158;28;944;-78
2021/01/22 15:53:13;;;;;;;;;;;;;;;;;;5075188;28;1190;-74
2021/01/22 15:55:38;;;;;;;;;;;;;;;;;;5076326;28;1421;-72
2021/01/22 15:58:03;;;;;;;;;;;;;;;;;;5075333;28;1111;-75
2021/01/22 16:00:29;;;;;;;;;;;;;;;;;;5076105;28;1886;-74
2021/01/22 16:02:54;;;;;;;;;;;;;;;;;;5075884;28;912;-75
2021/01/22 16:05:19;;;;;;;;;;;;;;;;;;5075897;28;1329;-76
2021/01/22 16:07:44;;;;;;;;;;;;;;;;;;5076010;28;818;-73
2021/01/22 16:10:10;;;;;;;;;;;;;;;;;;5076016;28;861;-72
2021/01/22 16:12:35;;;;;;;;;;;;;;;;;;5075835;28;929;-74
2021/01/22 16:15:00;;;;;;;;;;;;;;;;;;5075854;28;1254;-75
2021/01/22 16:17:25;;;;;;;;;;;;;;;;;;5074626;28;979;-72
2021/01/22 16:19:51;;;;;;;;;;;;;;;;;;5075462;28;1894;-75
2021/01/22 16:22:16;;;;;;;;;;;;;;;;;;5074383;28;1173;-76
2021/01/22 16:24:41;;;;;;;;;;;;;;;;;;5075773;28;1404;-75
2021/01/22 16:27:06;;;;;;;;;;;;;;;;;;5074349;28;1320;-74
2021/01/22 16:29:32;;;;;;;;;;;;;;;;;;5074581;28;1166;-75
2021/01/22 16:31:59;;;;;;;;;;;;;;;;;;5074054;28;1526;-71
2021/01/22 16:34:24;;;;;;;;;;;;;;;;;;5075640;28;867;-70
2021/01/22 16:36:49;;;;;;;;;;;;;;;;;;5074578;28;1365;-74
2021/01/22 16:39:14;;;;;;;;;;;;;;;;;;5074001;28;1965;-74
2021/01/22 16:41:40;;;;;;;;;;;;;;;;;;5075288;28;904;-72
2021/01/22 16:44:05;;;;;;;;;;;;;;;;;;5074136;28;1754;-75
2021/01/22 16:46:31;;;;;;;;;;;;;;;;;;5074053;28;1590;-73
2021/01/22 16:48:56;;;;;;;;;;;;;;;;;;5075468;28;888;-72
2021/01/22 16:51:21;;;;;;;;;;;;;;;;;;5073820;28;841;-77
2021/01/22 16:53:46;;;;;;;;;;;;;;;;;;5075012;28;863;-75
2021/01/22 16:56:12;;;;;;;;;;;;;;;;;;5073899;28;1522;-71
2021/01/22 16:58:37;;;;;;;;;;;;;;;;;;5075254;28;943;-70
2021/01/22 17:01:02;;;;;;;;;;;;;;;;;;5073605;28;1961;-74
2021/01/22 17:03:29;;;;;;;;;;;;;;;;;;5073842;28;1276;-73